Time;durP1;ratioP1;P1;durP2;ratioP2;P2;SDS_P1;SDS_P2;PMS_P1;PMS_P2;Temp;Humidity;BMP_temperature;BMP_pressure;BME280_temperature;BME280_humidity;BME280_pressure;Samples;Min_cycle;Max_cycle;Signal;HPM_P1;HPM_P2
2022/09/17 00:01:18;;;;;;;;;9.75;7.25;;;;;26.85;100.00;101434.47;5038285;28;51145;-60
2022/09/17 00:04:03;;;;;;;;;4.00;2.00;;;;;26.84;100.00;101436.28;5042395;28;51463;-59
2022/09/17 00:06:48;;;;;;;;;9.25;6.25;;;;;26.79;100.00;101422.06;5041475;28;51174;-59
2022/09/17 00:09:32;;;;;;;;;6.00;4.75;;;;;26.85;100.00;101427.13;5041894;28;51167;-59
2022/09/17 00:12:17;;;;;;;;;7.00;5.00;;;;;26.82;100.00;101420.97;5041526;28;51341;-60
2022/09/17 00:15:02;;;;;;;;;6.00;5.75;;;;;26.87;100.00;101421.59;5026844;28;51114;-60
2022/09/17 00:17:46;;;;;;;;;10.25;8.75;;;;;26.87;100.00;101416.13;5041881;28;51491;-60
2022/09/17 00:20:31;;;;;;;;;8.00;7.00;;;;;26.79;100.00;101407.50;5036628;28;51066;-60
2022/09/17 00:23:16;;;;;;;;;8.00;7.50;;;;;26.81;100.00;101411.94;5042217;28;51041;-60
2022/09/17 00:26:05;;;;;;;;;7.50;7.50;;;;;26.86;100.00;101420.69;5041785;28;51199;-60
2022/09/17 00:28:51;;;;;;;;;6.25;6.00;;;;;26.86;100.00;101412.50;5037720;28;51549;-60
2022/09/17 00:31:36;;;;;;;;;9.50;6.50;;;;;26.84;100.00;101406.25;5053697;28;51210;-60
2022/09/17 00:34:21;;;;;;;;;12.25;9.25;;;;;26.86;100.00;101403.44;5061979;28;51075;-60
2022/09/17 00:37:05;;;;;;;;;9.00;7.00;;;;;26.83;100.00;101404.50;5061646;28;51468;-60
2022/09/17 00:39:49;;;;;;;;;8.25;6.00;;;;;26.87;100.00;101402.47;5061505;28;51176;-60
2022/09/17 00:42:34;;;;;;;;;8.75;6.00;;;;;26.86;100.00;101404.31;5061369;28;51185;-59
2022/09/17 00:45:20;;;;;;;;;7.75;7.00;;;;;26.87;100.00;101408.81;5061389;28;51183;-60
2022/09/17 00:48:05;;;;;;;;;8.75;6.00;;;;;26.89;100.00;101398.69;5061807;28;51038;-60
2022/09/17 00:50:51;;;;;;;;;12.25;8.25;;;;;26.91;100.00;101401.28;5061588;28;51531;-60
2022/09/17 00:53:35;;;;;;;;;9.50;6.75;;;;;26.86;100.00;101379.75;5046178;28;51375;-60
2022/09/17 00:56:26;;;;;;;;;10.25;6.50;;;;;26.92;100.00;101397.59;5060008;28;51256;-60
2022/09/17 00:59:10;;;;;;;;;10.50;6.50;;;;;26.88;100.00;101393.28;5060341;28;51164;-60
2022/09/17 01:01:55;;;;;;;;;11.25;6.50;;;;;26.95;100.00;101393.78;5037883;28;51477;-60
2022/09/17 01:04:39;;;;;;;;;10.75;8.50;;;;;26.93;100.00;101398.50;5025711;28;51155;-60
2022/09/17 01:07:41;;;;;;;;;14.50;10.00;;;;;26.91;100.00;101395.84;5041258;28;51230;-60
2022/09/17 01:10:37;;;;;;;;;4.00;2.25;;;;;26.90;100.00;101405.00;5028122;28;51160;-60
2022/09/17 01:13:48;;;;;;;;;13.00;7.00;;;;;26.88;100.00;101402.38;5061251;28;51120;-59
2022/09/17 01:16:46;;;;;;;;;10.50;8.50;;;;;26.89;100.00;101397.78;5059888;28;51245;-60
2022/09/17 01:19:55;;;;;;;;;9.75;7.00;;;;;26.87;100.00;101397.88;5023166;28;51436;-59
2022/09/17 01:22:56;;;;;;;;;12.25;8.00;;;;;26.87;100.00;101399.75;5040600;28;52086;-60
2022/09/17 01:26:25;;;;;;;;;10.75;7.25;;;;;26.86;100.00;101403.44;5040931;28;51209;-60
2022/09/17 01:29:37;;;;;;;;;10.25;7.00;;;;;26.84;100.00;101405.41;4996341;28;51099;-59
2022/09/17 01:32:42;;;;;;;;;7.00;6.75;;;;;26.84;100.00;101394.47;4998770;28;51222;-59
2022/09/17 01:36:08;;;;;;;;;12.50;7.50;;;;;26.86;100.00;101403.44;5019317;28;51346;-60
2022/09/17 01:38:59;;;;;;;;;8.50;7.00;;;;;26.79;100.00;101388.41;5020086;28;51244;-60
2022/09/17 01:42:03;;;;;;;;;10.00;8.00;;;;;26.82;100.00;101393.69;5034219;28;51041;-59
2022/09/17 01:45:06;;;;;;;;;8.00;8.00;;;;;26.82;100.00;101390.94;5040530;28;51178;-60
2022/09/17 01:48:12;;;;;;;;;11.75;7.50;;;;;26.82;100.00;101380.03;5040369;28;51148;-59
2022/09/17 01:51:04;;;;;;;;;11.25;8.00;;;;;26.84;100.00;101384.41;5040516;28;51151;-59
2022/09/17 01:54:10;;;;;;;;;11.75;8.25;;;;;26.85;100.00;101394.38;5025598;28;51153;-60
2022/09/17 01:57:08;;;;;;;;;10.50;9.25;;;;;26.87;100.00;101388.81;5004666;28;51489;-60
2022/09/17 02:00:12;;;;;;;;;12.75;10.25;;;;;26.84;100.00;101383.56;5004936;28;51237;-60
2022/09/17 02:03:03;;;;;;;;;12.00;6.00;;;;;26.90;100.00;101396.81;5019107;28;51163;-59
2022/09/17 02:06:04;;;;;;;;;14.00;8.25;;;;;26.89;100.00;101392.31;5019353;28;51266;-60
2022/09/17 02:08:55;;;;;;;;;11.75;9.75;;;;;26.88;100.00;101391.44;5018803;28;51465;-59
2022/09/17 02:11:43;;;;;;;;;12.00;9.00;;;;;26.81;100.00;101379.16;5019917;28;51162;-60
2022/09/17 02:14:33;;;;;;;;;17.00;10.25;;;;;26.83;100.00;101381.78;5001645;28;51286;-60
2022/09/17 02:17:29;;;;;;;;;15.50;10.25;;;;;26.88;100.00;101398.75;5003297;28;51244;-60
2022/09/17 02:20:14;;;;;;;;;15.00;10.00;;;;;26.88;100.00;101402.38;5002409;28;51249;-60
2022/09/17 02:23:01;;;;;;;;;12.00;8.00;;;;;26.86;100.00;101393.41;5018981;28;51581;-60
2022/09/17 02:25:54;;;;;;;;;8.75;7.25;;;;;26.85;100.00;101388.91;5018663;28;51100;-59
2022/09/17 02:28:42;;;;;;;;;9.25;8.00;;;;;26.85;100.00;101391.63;5033619;28;51195;-60
2022/09/17 02:31:27;;;;;;;;;9.75;7.00;;;;;26.85;100.00;101390.78;5023639;28;51204;-59
2022/09/17 02:34:11;;;;;;;;;9.00;8.00;;;;;26.83;100.00;101393.56;5024226;28;51466;-60
2022/09/17 02:36:59;;;;;;;;;9.75;6.50;;;;;26.79;100.00;101388.41;5039579;28;51531;-60
2022/09/17 02:39:44;;;;;;;;;9.25;6.00;;;;;26.83;100.00;101395.44;5024799;28;51103;-60
2022/09/17 02:42:50;;;;;;;;;9.25;6.50;;;;;26.83;100.00;101395.44;5028409;28;51478;-60
2022/09/17 02:46:12;;;;;;;;;12.00;7.50;;;;;26.83;100.00;101401.75;5060022;28;51044;-59
2022/09/17 02:49:23;;;;;;;;;8.00;6.25;;;;;26.84;100.00;101397.19;5059780;28;51579;-59
2022/09/17 02:52:19;;;;;;;;;13.75;9.00;;;;;26.84;100.00;101405.41;5059826;28;51078;-60
2022/09/17 02:55:27;;;;;;;;;9.00;7.00;;;;;26.71;100.00;101380.69;5060021;28;51179;-60
2022/09/17 02:58:24;;;;;;;;;10.50;6.50;;;;;26.80;100.00;101398.34;5059846;28;51161;-60
2022/09/17 03:01:14;;;;;;;;;10.25;7.25;;;;;26.80;100.00;101398.34;5044324;28;51566;-59
2022/09/17 03:41:02;;;;;;;;;11.00;6.75;;;;;26.18;100.00;101427.47;4366570;32;51122;-58
2022/09/17 03:43:47;;;;;;;;;11.25;8.25;;;;;26.24;100.00;101428.97;5102429;27;51066;-58
2022/09/17 03:46:31;;;;;;;;;8.75;6.00;;;;;26.25;100.00;101422.50;5098031;27;51355;-58
2022/09/17 03:49:16;;;;;;;;;12.00;7.00;;;;;26.36;100.00;101438.28;5098057;27;51226;-58
2022/09/17 03:52:01;;;;;;;;;9.00;9.00;;;;;26.44;100.00;101431.41;5102643;27;51277;-58
2022/09/17 03:54:46;;;;;;;;;11.00;10.00;;;;;26.53;100.00;101442.72;5118587;27;51206;-58
2022/09/17 03:57:30;;;;;;;;;9.25;6.50;;;;;26.63;100.00;101441.19;5119325;27;51075;-58
2022/09/17 04:00:16;;;;;;;;;7.50;6.75;;;;;26.69;100.00;101451.72;5118408;27;52069;-58
2022/09/17 04:03:00;;;;;;;;;9.75;7.50;;;;;26.77;100.00;101440.34;5109717;27;51523;-58
2022/09/17 04:05:45;;;;;;;;;8.75;8.25;;;;;26.83;100.00;101437.25;5098482;27;51062;-58
2022/09/17 04:08:30;;;;;;;;;9.00;9.00;;;;;26.84;100.00;101433.56;5111745;27;51219;-58
2022/09/17 04:11:14;;;;;;;;;7.50;7.00;;;;;26.93;100.00;101434.00;5117641;27;51021;-58
2022/09/17 04:13:58;;;;;;;;;9.25;7.75;;;;;26.98;100.00;101440.03;5117345;27;51122;-59
2022/09/17 04:16:43;;;;;;;;;11.75;10.00;;;;;27.01;100.00;101446.16;5103633;27;51436;-59
2022/09/17 04:19:27;;;;;;;;;9.25;7.00;;;;;27.03;100.00;101443.38;5097013;27;51222;-59
2022/09/17 04:22:12;;;;;;;;;12.75;9.50;;;;;27.01;100.00;101442.56;5098017;27;51117;-59
2022/09/17 04:24:56;;;;;;;;;10.25;9.75;;;;;26.97;100.00;101444.63;5103502;27;51134;-58
2022/09/17 04:27:41;;;;;;;;;13.75;10.75;;;;;26.96;100.00;101447.44;5109184;27;51159;-58
2022/09/17 04:30:25;;;;;;;;;15.50;14.00;;;;;26.93;100.00;101444.91;5116481;27;51486;-59
2022/09/17 04:33:10;;;;;;;;;16.00;12.50;;;;;26.88;100.00;101448.78;5118234;27;51110;-59
2022/09/17 04:35:54;;;;;;;;;11.00;11.00;;;;;26.87;100.00;101448.91;5118378;27;51112;-58
2022/09/17 04:38:39;;;;;;;;;14.50;10.00;;;;;26.81;100.00;101450.16;5115277;27;53236;-59
2022/09/17 04:41:23;;;;;;;;;9.00;9.00;;;;;26.81;100.00;101446.53;5097281;27;51171;-59
2022/09/17 04:44:08;;;;;;;;;9.75;8.50;;;;;26.82;100.00;101453.75;5096982;27;51077;-58
2022/09/17 04:46:52;;;;;;;;;10.00;8.75;;;;;26.80;100.00;101458.41;5097102;27;51148;-58
2022/09/17 04:49:36;;;;;;;;;9.00;8.00;;;;;26.79;100.00;101460.28;5096798;27;51350;-59
2022/09/17 04:52:21;;;;;;;;;12.75;9.75;;;;;26.74;100.00;101456.91;5083199;27;51955;-59
2022/09/17 04:55:06;;;;;;;;;14.75;12.00;;;;;26.81;100.00;101473.81;5102292;27;51217;-58
2022/09/17 04:57:52;;;;;;;;;19.00;13.50;;;;;26.77;100.00;101470.38;5103669;27;51144;-59
2022/09/17 05:00:37;;;;;;;;;15.50;12.25;;;;;26.83;100.00;101480.09;5103358;27;51181;-59
2022/09/17 05:03:21;;;;;;;;;16.75;12.75;;;;;26.85;100.00;101479.00;5088969;27;51144;-59
2022/09/17 05:06:06;;;;;;;;;11.00;10.25;;;;;26.86;100.00;101483.50;5086600;27;51492;-59
2022/09/17 05:08:50;;;;;;;;;13.00;13.00;;;;;26.87;100.00;101492.59;5087769;27;51079;-59
2022/09/17 05:11:35;;;;;;;;;18.75;13.00;;;;;26.88;100.00;101492.47;5082760;27;51132;-59
2022/09/17 05:14:19;;;;;;;;;14.50;11.50;;;;;26.88;100.00;101488.84;5100322;27;51544;-59
2022/09/17 05:17:04;;;;;;;;;14.00;11.50;;;;;26.90;100.00;101486.91;5103062;27;51501;-59
2022/09/17 05:19:48;;;;;;;;;11.75;11.75;;;;;26.88;100.00;101481.56;5103201;27;51190;-59
2022/09/17 05:22:33;;;;;;;;;12.50;10.75;;;;;26.94;100.00;101495.78;5103216;27;51206;-59
2022/09/17 05:25:22;;;;;;;;;12.75;12.75;;;;;26.94;100.00;101490.34;5102723;27;51406;-59
2022/09/17 05:28:07;;;;;;;;;12.50;12.25;;;;;26.94;100.00;101493.06;5103057;27;51280;-59
2022/09/17 05:30:52;;;;;;;;;14.00;14.00;;;;;26.95;100.00;101494.81;5083763;27;51198;-59
2022/09/17 05:33:36;;;;;;;;;15.25;13.50;;;;;26.95;100.00;101500.28;5082227;27;51129;-59
2022/09/17 05:36:21;;;;;;;;;19.75;17.00;;;;;26.94;100.00;101496.69;5099228;27;51134;-58
2022/09/17 05:39:05;;;;;;;;;17.25;14.00;;;;;26.89;100.00;101493.34;5101049;27;51547;-59
2022/09/17 05:41:51;;;;;;;;;19.75;16.25;;;;;26.97;100.00;101498.34;5094957;27;51748;-59
2022/09/17 05:44:35;;;;;;;;;55.25;43.50;;;;;26.99;100.00;101491.81;5097476;27;51141;-59
2022/09/17 05:47:20;;;;;;;;;43.50;32.50;;;;;27.02;100.00;101498.97;5100896;27;51474;-59
2022/09/17 05:50:04;;;;;;;;;17.00;15.50;;;;;26.99;100.00;101508.19;5099192;27;51116;-59
2022/09/17 05:52:50;;;;;;;;;17.50;14.50;;;;;26.96;100.00;101510.25;5101346;27;51484;-59
2022/09/17 05:55:35;;;;;;;;;16.25;14.25;;;;;26.92;100.00;101509.56;5100352;27;51486;-59
2022/09/17 05:58:19;;;;;;;;;12.50;12.00;;;;;26.95;100.00;101513.94;5099481;27;51079;-59
2022/09/17 06:01:04;;;;;;;;;12.25;12.00;;;;;26.89;100.00;101517.91;5101314;27;51162;-59
2022/09/17 06:03:48;;;;;;;;;17.25;15.75;;;;;26.92;100.00;101523.22;5082962;27;51511;-59
2022/09/17 06:06:33;;;;;;;;;16.25;16.25;;;;;26.95;100.00;101524.88;5091048;27;51384;-59
2022/09/17 06:09:17;;;;;;;;;19.75;16.25;;;;;26.97;100.00;101532.00;5080728;27;51134;-59
2022/09/17 06:12:03;;;;;;;;;19.25;14.75;;;;;27.01;100.00;101539.03;5081226;27;51152;-60
2022/09/17 06:14:48;;;;;;;;;14.00;12.25;;;;;27.05;100.00;101543.34;5089796;27;51351;-59
2022/09/17 06:17:34;;;;;;;;;17.00;14.00;;;;;27.08;100.00;101545.00;5100781;27;51245;-59
2022/09/17 06:20:19;;;;;;;;;20.00;16.00;;;;;27.09;100.00;101537.72;5097972;27;51335;-59
2022/09/17 06:23:04;;;;;;;;;17.25;17.00;;;;;27.12;100.00;101541.13;5095937;27;51195;-59
2022/09/17 06:25:57;;;;;;;;;18.25;16.25;;;;;27.22;100.00;101555.97;5095124;27;51205;-59
2022/09/17 06:28:41;;;;;;;;;19.25;15.25;;;;;27.23;100.00;101551.38;5097029;27;51259;-59
2022/09/17 06:31:26;;;;;;;;;28.50;19.00;;;;;27.34;100.00;101564.41;5096303;27;51451;-59
2022/09/17 06:34:11;;;;;;;;;21.50;18.00;;;;;27.41;100.00;101573.97;5088559;27;51066;-59
2022/09/17 06:36:55;;;;;;;;;23.75;23.00;;;;;27.46;100.00;101570.97;5074808;27;51170;-59
2022/09/17 06:39:40;;;;;;;;;27.50;22.75;;;;;27.49;100.00;101577.13;5075808;27;51220;-59
2022/09/17 06:42:25;;;;;;;;;22.50;19.50;;;;;27.53;100.00;101572.34;5100639;27;51087;-59
2022/09/17 06:45:10;;;;;;;;;22.00;20.75;;;;;27.60;100.00;101572.84;5090661;27;51144;-59
2022/09/17 06:47:55;;;;;;;;;23.25;20.50;;;;;27.69;100.00;101566.78;5079705;27;51074;-59
2022/09/17 06:50:39;;;;;;;;;26.50;22.50;;;;;27.80;100.00;101571.59;5080500;27;51011;-59
2022/09/17 06:53:24;;;;;;;;;29.00;26.75;;;;;27.96;100.00;101579.72;5078790;27;51089;-60
2022/09/17 06:56:09;;;;;;;;;26.50;22.75;;;;;28.07;100.00;101582.63;5076404;27;51173;-60
2022/09/17 06:58:53;;;;;;;;;27.50;26.50;;;;;28.16;100.00;101575.69;5080102;27;51150;-59
2022/09/17 07:01:37;;;;;;;;;31.75;27.75;;;;;28.24;100.00;101583.41;5074217;27;51223;-59
2022/09/17 07:04:22;;;;;;;;;28.50;27.25;;;;;28.25;100.00;101579.69;5079570;27;51234;-59
2022/09/17 07:07:07;;;;;;;;;31.00;28.50;;;;;28.27;100.00;101583.22;5078530;27;51160;-58
2022/09/17 07:09:52;;;;;;;;;36.00;29.25;;;;;28.32;100.00;101582.91;5075314;27;51200;-59
2022/09/17 07:12:40;;;;;;;;;37.75;31.75;;;;;28.37;100.00;101573.44;5078120;27;51204;-59
2022/09/17 07:15:25;;;;;;;;;27.25;24.25;;;;;28.52;100.00;101587.94;5099960;27;51165;-59
2022/09/17 07:18:10;;;;;;;;;25.50;22.00;;;;;28.70;100.00;101583.09;5085572;27;51434;-59
2022/09/17 07:20:56;;;;;;;;;20.25;17.75;;;;;29.05;100.00;101573.50;5077916;27;51112;-54
2022/09/17 07:23:41;;;;;;;;;19.25;18.75;;;;;30.20;100.00;101590.13;5094052;27;51080;-56
2022/09/17 07:26:26;;;;;;;;;28.50;22.75;;;;;31.35;100.00;101566.78;5099239;27;50989;-53
2022/09/17 07:29:11;;;;;;;;;26.50;21.25;;;;;31.54;100.00;101562.56;5098295;27;51518;-58
2022/09/17 07:31:58;;;;;;;;;19.50;15.00;;;;;31.43;100.00;101560.69;5099079;27;51128;-54
2022/09/17 07:34:42;;;;;;;;;26.00;25.00;;;;;31.49;100.00;101570.31;5100461;27;51235;-53
2022/09/17 07:37:27;;;;;;;;;16.75;16.00;;;;;31.52;100.00;101567.31;5099073;27;51152;-56
2022/09/17 07:40:11;;;;;;;;;20.00;18.00;;;;;31.49;100.00;101570.31;5100248;27;51126;-58
2022/09/17 07:42:59;;;;;;;;;19.75;18.75;;;;;31.53;100.00;101574.59;5083977;27;51434;-56
2022/09/17 07:45:43;;;;;;;;;27.00;21.50;;;;;31.89;100.00;101578.13;5095597;27;51105;-60
2022/09/17 07:48:28;;;;;;;;;19.50;18.25;;;;;31.98;100.00;101563.63;5078180;27;51117;-59
2022/09/17 07:51:21;;;;;;;;;22.75;18.75;;;;;32.04;100.00;101575.13;5097075;27;51024;-61
2022/09/17 07:54:06;;;;;;;;;19.00;18.25;;;;;32.25;100.00;101575.25;5100311;27;51538;-58
2022/09/17 07:56:50;;;;;;;;;21.75;18.00;;;;;32.54;100.00;101572.81;5097536;27;51183;-58
2022/09/17 07:59:35;;;;;;;;;19.00;17.00;;;;;32.65;100.00;101562.78;5079583;27;51217;-59
2022/09/17 08:02:20;;;;;;;;;19.25;16.00;;;;;33.15;100.00;101560.31;5096260;27;51136;-59
2022/09/17 08:05:05;;;;;;;;;22.00;19.00;;;;;34.64;100.00;101560.88;5100708;27;51129;-55
2022/09/17 08:07:50;;;;;;;;;19.00;17.00;;;;;36.10;100.00;101535.84;5081482;27;51318;-58
2022/09/17 08:10:35;;;;;;;;;13.00;11.00;;;;;36.14;100.00;101515.16;5095832;27;51575;-55
2022/09/17 08:13:20;;;;;;;;;10.75;9.00;;;;;35.76;100.00;101528.16;5100326;27;51092;-57
2022/09/17 08:16:07;;;;;;;;;18.25;10.25;;;;;35.35;100.00;101526.50;5096036;27;51073;-53
2022/09/17 08:18:56;;;;;;;;;12.00;9.75;;;;;35.28;100.00;101539.19;5100188;27;51108;-56
2022/09/17 08:21:41;;;;;;;;;16.25;11.00;;;;;35.12;100.00;101541.72;5100423;27;51170;-55
2022/09/17 08:24:26;;;;;;;;;14.00;12.00;;;;;34.82;100.00;101544.44;5100246;27;51437;-54
2022/09/17 08:27:10;;;;;;;;;11.50;10.25;;;;;34.65;100.00;101545.19;5098484;27;51070;-54
2022/09/17 08:29:55;;;;;;;;;11.50;11.50;;;;;34.58;100.00;101542.13;5103690;27;51111;-56
2022/09/17 08:32:39;;;;;;;;;16.00;14.50;;;;;34.57;100.00;101549.53;5104035;27;51021;-50
2022/09/17 08:35:25;;;;;;;;;15.25;11.50;;;;;34.56;100.00;101550.53;5102259;27;51449;-52
2022/09/17 08:38:09;;;;;;;;;12.25;12.00;;;;;34.53;100.00;101539.78;5084520;27;51194;-52
2022/09/17 08:41:26;;;;;;;;;17.50;10.75;;;;;34.45;100.00;101551.56;5083226;27;50979;-55
2022/09/17 08:44:24;;;;;;;;;18.75;14.00;;;;;34.47;100.00;101547.78;5096250;27;51436;-53
2022/09/17 08:47:17;;;;;;;;;15.50;12.25;;;;;34.39;100.00;101549.38;5091042;27;51183;-55
2022/09/17 08:50:05;;;;;;;;;11.50;10.75;;;;;34.23;100.00;101549.88;5085490;27;51169;-55
2022/09/17 08:52:59;;;;;;;;;17.00;13.50;;;;;34.18;100.00;101551.34;5091208;27;51160;-57
2022/09/17 08:56:10;;;;;;;;;14.00;11.25;;;;;34.27;100.00;101543.06;5099734;27;51236;-58
2022/09/17 08:59:13;;;;;;;;;13.00;13.00;;;;;34.33;100.00;101549.91;5087493;27;51348;-56
2022/09/17 09:01:59;;;;;;;;;12.75;11.00;;;;;34.28;100.00;101558.59;5099210;27;51082;-56
2022/09/17 09:05:09;;;;;;;;;11.50;9.75;;;;;34.04;100.00;101563.63;5093673;27;51120;-58
2022/09/17 09:08:24;;;;;;;;;19.75;17.00;;;;;33.94;100.00;101560.84;5083072;27;51156;-57
2022/09/17 09:11:25;;;;;;;;;24.75;14.50;;;;;33.83;100.00;101559.88;5087964;27;51447;-55
2022/09/17 09:14:22;;;;;;;;;15.00;13.00;;;;;33.76;100.00;101558.66;5092547;27;51531;-54
2022/09/17 09:17:09;;;;;;;;;17.50;11.00;;;;;33.68;100.00;101555.72;5094324;27;51181;-51
2022/09/17 09:19:55;;;;;;;;;12.75;9.00;;;;;33.53;100.00;101566.25;5091264;27;51218;-53
2022/09/17 09:22:51;;;;;;;;;16.25;9.75;;;;;33.31;100.00;101570.88;5079453;27;51106;-53
2022/09/17 09:25:44;;;;;;;;;11.50;11.50;;;;;33.27;100.00;101579.56;5079286;27;51217;-54
2022/09/17 09:28:38;;;;;;;;;13.50;11.25;;;;;33.27;100.00;101579.56;5079353;27;51226;-50
2022/09/17 09:32:00;;;;;;;;;12.50;10.50;;;;;33.11;100.00;101571.75;5086303;27;51160;-57
2022/09/17 09:34:45;;;;;;;;;14.75;10.00;;;;;33.01;100.00;101577.22;5085962;27;51042;-55
2022/09/17 09:37:33;;;;;;;;;14.00;11.75;;;;;32.97;100.00;101578.47;5089784;27;51442;-53
2022/09/17 09:40:41;;;;;;;;;13.75;10.75;;;;;32.86;100.00;101572.00;5088528;27;51094;-52
2022/09/17 09:43:34;;;;;;;;;13.00;10.00;;;;;32.82;100.00;101578.75;5081287;27;51121;-49
2022/09/17 09:46:31;;;;;;;;;13.75;8.25;;;;;32.73;100.00;101576.75;5075135;27;51232;-52
2022/09/17 09:49:39;;;;;;;;;14.00;8.25;;;;;32.67;100.00;101575.41;5081078;27;51080;-53
2022/09/17 09:53:01;;;;;;;;;9.00;6.50;;;;;32.69;100.00;101589.06;5086151;27;51561;-51
2022/09/17 09:56:06;;;;;;;;;6.50;6.50;;;;;32.65;100.00;101574.66;5086873;27;51468;-50
2022/09/17 09:58:51;;;;;;;;;11.00;10.00;;;;;32.58;100.00;101577.09;5086835;27;51150;-54
2022/09/17 10:01:39;;;;;;;;;12.50;8.75;;;;;32.56;100.00;101572.69;5100421;27;51090;-53
2022/09/17 10:04:26;;;;;;;;;9.75;8.50;;;;;32.51;100.00;101578.59;5084855;27;51406;-54
2022/09/17 10:07:11;;;;;;;;;8.75;8.25;;;;;32.53;100.00;101576.59;5100636;27;51098;-56
2022/09/17 10:10:08;;;;;;;;;19.50;9.00;;;;;32.56;100.00;101575.44;5100782;27;51147;-51
2022/09/17 10:13:06;;;;;;;;;9.75;9.00;;;;;32.48;100.00;101567.84;5101058;27;51015;-53
2022/09/17 10:15:51;;;;;;;;;10.25;8.75;;;;;32.48;100.00;101562.34;5100467;27;51228;-52
2022/09/17 10:18:35;;;;;;;;;11.75;7.75;;;;;32.56;100.00;101568.06;5089216;27;51123;-54
2022/09/17 10:21:22;;;;;;;;;10.25;9.00;;;;;32.60;100.00;101563.16;5080382;27;51100;-53
2022/09/17 10:24:28;;;;;;;;;12.25;12.25;;;;;32.66;100.00;101557.13;5096532;27;51212;-53
2022/09/17 10:27:16;;;;;;;;;9.50;8.00;;;;;32.82;100.00;101558.63;5093064;27;51197;-56
2022/09/17 10:30:14;;;;;;;;;12.25;10.75;;;;;32.87;100.00;101556.31;5079853;27;51155;-51
2022/09/17 10:33:20;;;;;;;;;13.50;9.25;;;;;32.87;100.00;101557.22;5089745;27;51120;-49
2022/09/17 10:36:08;;;;;;;;;11.75;10.25;;;;;32.93;100.00;101550.31;5088704;27;51200;-53
2022/09/17 10:38:53;;;;;;;;;11.00;7.25;;;;;33.00;100.00;101545.13;5080233;27;51064;-51
2022/09/17 10:42:15;;;;;;;;;12.75;9.25;;;;;33.11;100.00;101542.31;5080608;27;51094;-52
2022/09/17 10:45:00;;;;;;;;;10.25;7.75;;;;;33.17;100.00;101529.88;5098063;27;51151;-56
2022/09/17 10:47:45;;;;;;;;;8.50;6.75;;;;;33.39;100.00;101537.16;5099746;27;51406;-54
2022/09/17 10:50:31;;;;;;;;;7.00;5.50;;;;;33.61;100.00;101530.56;5078749;27;51213;-52
2022/09/17 10:53:17;;;;;;;;;8.50;8.00;;;;;33.75;100.00;101523.84;5093484;27;51172;-55
2022/09/17 10:56:35;;;;;;;;;9.00;7.75;;;;;33.89;100.00;101525.38;5079147;27;51074;-52
2022/09/17 10:59:42;;;;;;;;;8.75;8.00;;;;;33.96;100.00;101526.53;5078263;27;51179;-54
2022/09/17 11:03:25;;;;;;;;;9.50;5.25;;;;;33.96;100.00;101523.78;5079789;27;51434;-55
2022/09/17 11:06:24;;;;;;;;;8.25;7.50;;;;;33.86;100.00;101517.31;5021624;28;51170;-55
2022/09/17 11:09:42;;;;;;;;;10.50;7.25;;;;;33.79;100.00;101517.00;5099426;27;51344;-50
2022/09/17 11:13:15;;;;;;;;;5.75;5.75;;;;;33.73;100.00;101516.69;5100206;27;51192;-53
2022/09/17 11:16:31;;;;;;;;;7.50;7.00;;;;;33.74;100.00;101502.78;5093758;27;51161;-54
2022/09/17 11:19:52;;;;;;;;;13.00;8.25;;;;;33.70;100.00;101504.03;5083815;27;51092;-54
2022/09/17 11:23:04;;;;;;;;;7.25;7.00;;;;;33.60;100.00;101497.63;5042378;28;51143;-56
2022/09/17 11:26:07;;;;;;;;;9.50;7.00;;;;;33.56;100.00;101493.38;5080060;27;51501;-55
2022/09/17 11:29:02;;;;;;;;;8.00;8.00;;;;;33.46;100.00;101498.88;5079246;27;51178;-55
2022/09/17 11:32:02;;;;;;;;;9.75;9.25;;;;;33.25;100.00;101490.56;5083125;27;51498;-53
2022/09/17 11:35:11;;;;;;;;;7.00;5.25;;;;;33.02;100.00;101483.34;5085295;27;51208;-52
2022/09/17 11:38:27;;;;;;;;;7.50;7.50;;;;;32.80;100.00;101477.94;5096034;27;51080;-55
2022/09/17 11:41:21;;;;;;;;;11.50;8.25;;;;;32.74;100.00;101479.31;5089505;27;51101;-51
2022/09/17 11:44:24;;;;;;;;;8.00;7.50;;;;;32.60;100.00;101469.50;5088110;27;51463;-54
2022/09/17 11:47:19;;;;;;;;;9.50;9.00;;;;;32.59;100.00;101465.84;5092380;27;51115;-55
2022/09/17 11:50:20;;;;;;;;;10.25;8.00;;;;;32.53;100.00;101468.28;5099487;27;51206;-54
2022/09/17 11:53:31;;;;;;;;;10.00;9.50;;;;;32.39;100.00;101458.44;5099819;27;51192;-52
2022/09/17 11:56:28;;;;;;;;;11.00;9.50;;;;;32.45;100.00;101464.28;5098956;27;51510;-54
2022/09/17 11:59:39;;;;;;;;;9.50;9.00;;;;;32.48;100.00;101451.28;5081414;27;51549;-55
2022/09/17 12:02:45;;;;;;;;;9.75;7.00;;;;;32.37;100.00;101442.06;5091040;27;51176;-54
2022/09/17 12:05:51;;;;;;;;;8.50;6.50;;;;;32.39;100.00;101437.28;5098302;27;51221;-56
2022/09/17 12:08:50;;;;;;;;;9.50;6.50;;;;;32.50;100.00;101425.34;5094803;27;51316;-57
2022/09/17 12:11:58;;;;;;;;;10.00;7.00;;;;;32.55;100.00;101417.56;5084833;27;51423;-53
2022/09/17 12:14:49;;;;;;;;;6.75;6.75;;;;;32.57;100.00;101410.03;5096479;27;51339;-56
2022/09/17 12:18:03;;;;;;;;;9.50;7.00;;;;;32.59;100.00;101407.16;5083055;27;51161;-52
2022/09/17 12:20:51;;;;;;;;;8.25;7.00;;;;;32.53;100.00;101392.03;5087366;27;51187;-54
2022/09/17 12:23:48;;;;;;;;;12.50;10.00;;;;;32.54;100.00;101373.63;5085929;27;51259;-55
2022/09/17 12:27:04;;;;;;;;;13.25;8.00;;;;;32.67;100.00;101381.69;5083165;27;51372;-57
2022/09/17 12:30:00;;;;;;;;;9.50;8.75;;;;;32.79;100.00;101382.47;5083500;27;51166;-56
2022/09/17 12:32:59;;;;;;;;;10.25;8.50;;;;;32.90;100.00;101377.81;5090901;27;51410;-56
2022/09/17 12:36:16;;;;;;;;;13.00;9.00;;;;;33.07;100.00;101364.38;5089529;27;51230;-50
2022/09/17 12:39:23;;;;;;;;;5.50;5.00;;;;;33.20;100.00;101361.38;5072405;27;51548;-54
2022/09/17 12:42:31;;;;;;;;;12.00;9.75;;;;;33.23;100.00;101353.69;5102932;27;51183;-56
2022/09/17 12:45:51;;;;;;;;;12.00;8.00;;;;;33.30;100.00;101347.66;5097679;27;50415;-54
2022/09/17 12:48:55;;;;;;;;;10.75;7.00;;;;;33.34;100.00;101332.56;5038085;28;51507;-55
2022/09/17 12:51:52;;;;;;;;;13.25;10.75;;;;;33.40;100.00;101334.78;5085600;27;51186;-55
2022/09/17 12:55:22;;;;;;;;;14.25;10.00;;;;;33.48;100.00;101323.91;5091086;27;51332;-55
2022/09/17 12:58:12;;;;;;;;;9.00;7.00;;;;;33.37;100.00;101315.75;5086403;27;51254;-55
2022/09/17 13:01:05;;;;;;;;;8.50;7.75;;;;;33.16;100.00;101308.41;5102704;27;51597;-53
2022/09/17 13:03:56;;;;;;;;;11.25;6.25;;;;;32.91;100.00;101298.75;5088920;27;51210;-55
2022/09/17 13:07:12;;;;;;;;;6.75;6.75;;;;;32.68;100.00;101304.41;5077974;27;51150;-53
2022/09/17 13:10:24;;;;;;;;;10.50;7.00;;;;;32.53;100.00;101303.88;5094821;27;51153;-51
2022/09/17 13:13:38;;;;;;;;;9.50;6.00;;;;;32.35;100.00;101287.09;5091149;27;51194;-56
2022/09/17 13:16:50;;;;;;;;;10.00;8.75;;;;;32.23;100.00;101282.63;5082304;27;51461;-55
2022/09/17 13:19:46;;;;;;;;;6.00;6.00;;;;;32.09;100.00;101276.47;5095662;27;51514;-56
2022/09/17 13:22:33;;;;;;;;;12.25;7.25;;;;;31.94;100.00;101267.66;5101115;27;51443;-57
2022/09/17 13:25:19;;;;;;;;;13.50;7.50;;;;;31.83;100.00;101265.81;5096458;27;51236;-56
2022/09/17 13:28:08;;;;;;;;;9.75;8.75;;;;;31.72;100.00;101256.75;5101670;27;51305;-55
2022/09/17 13:31:00;;;;;;;;;8.00;6.50;;;;;31.71;100.00;101260.50;5082318;27;51137;-57
2022/09/17 13:34:11;;;;;;;;;8.75;7.50;;;;;31.64;100.00;101251.88;5096975;27;51267;-53
2022/09/17 13:36:58;;;;;;;;;6.00;6.00;;;;;31.57;100.00;101253.41;5066480;27;51466;-54
2022/09/17 13:39:45;;;;;;;;;11.00;8.25;;;;;31.53;100.00;101256.41;5085607;27;51119;-56
2022/09/17 13:42:44;;;;;;;;;11.25;9.50;;;;;31.55;100.00;101252.66;5101764;27;51158;-55